Time;durP1;ratioP1;P1;durP2;ratioP2;P2;SDS_P1;SDS_P2;PMS_P1;PMS_P2;Temp;Humidity;BMP_temperature;BMP_pressure;BME280_temperature;BME280_humidity;BME280_pressure;Samples;Min_cycle;Max_cycle;Signal;HPM_P1;HPM_P2
2021/06/22 00:00:34;;;;;;;12.87;11.57;;;25.70;99.90;;;;;;5094754;28;20267;-68
2021/06/22 00:03:00;;;;;;;12.97;11.63;;;25.80;99.90;;;;;;5094961;28;20227;-65
2021/06/22 00:05:27;;;;;;;13.50;12.17;;;25.50;99.90;;;;;;5094626;28;20781;-69
2021/06/22 00:07:55;;;;;;;14.17;11.63;;;25.40;99.90;;;;;;5093381;28;20417;-68
2021/06/22 00:10:25;;;;;;;13.13;11.70;;;25.30;99.90;;;;;;5094624;28;20775;-67
2021/06/22 00:12:51;;;;;;;13.60;11.90;;;25.30;99.90;;;;;;5094736;28;20423;-65
2021/06/22 00:15:20;;;;;;;13.40;12.20;;;25.30;99.90;;;;;;5094477;28;20477;-68
2021/06/22 00:17:47;;;;;;;17.60;13.53;;;25.40;99.90;;;;;;5094619;28;20898;-65
2021/06/22 00:20:14;;;;;;;11.80;10.57;;;25.40;99.90;;;;;;5094463;28;20439;-68
2021/06/22 00:22:41;;;;;;;12.43;11.23;;;25.30;99.90;;;;;;5094114;28;20479;-65
2021/06/22 00:25:08;;;;;;;19.60;12.40;;;25.10;99.90;;;;;;5094240;28;20534;-66
2021/06/22 00:27:34;;;;;;;14.00;12.20;;;25.20;99.90;;;;;;5092982;28;20558;-65
2021/06/22 00:30:00;;;;;;;14.30;13.00;;;25.30;99.90;;;;;;5092827;28;20443;-65
2021/06/22 00:32:25;;;;;;;13.37;11.70;;;25.50;99.90;;;;;;5092932;28;20424;-69
2021/06/22 00:34:51;;;;;;;13.57;12.20;;;25.50;99.90;;;;;;5094142;28;20718;-68
2021/06/22 00:37:18;;;;;;;14.83;13.53;;;25.50;99.90;;;;;;5094264;28;20184;-65
2021/06/22 00:39:45;;;;;;;12.80;11.57;;;25.50;99.90;;;;;;5094167;28;20633;-69
2021/06/22 00:42:12;;;;;;;13.30;12.00;;;25.40;99.90;;;;;;5094040;28;20519;-67
2021/06/22 00:44:52;;;;;;;15.20;12.47;;;25.30;99.90;;;;;;5094119;28;20500;-65
2021/06/22 00:47:19;;;;;;;13.20;11.90;;;25.30;99.90;;;;;;5094119;28;20544;-69
2021/06/22 00:49:48;;;;;;;13.50;12.10;;;25.30;99.90;;;;;;5094053;28;20408;-65
2021/06/22 00:52:15;;;;;;;13.53;12.23;;;25.30;99.90;;;;;;5094108;28;20419;-69
2021/06/22 00:54:40;;;;;;;13.07;11.80;;;25.20;99.90;;;;;;5092691;28;20828;-66
2021/06/22 00:57:09;;;;;;;13.63;12.27;;;25.10;99.90;;;;;;5093768;28;20439;-68
2021/06/22 00:59:36;;;;;;;14.07;12.53;;;25.10;99.90;;;;;;5093883;28;20543;-69
2021/06/22 01:02:05;;;;;;;19.40;12.27;;;25.00;99.90;;;;;;5092980;28;20448;-69
2021/06/22 01:04:32;;;;;;;18.00;13.20;;;25.00;99.90;;;;;;5093735;28;20411;-65
2021/06/22 01:06:59;;;;;;;16.23;12.37;;;24.90;99.90;;;;;;5092300;28;20472;-68
2021/06/22 01:09:25;;;;;;;14.00;12.00;;;25.00;99.90;;;;;;5093755;28;20396;-65
2021/06/22 01:11:51;;;;;;;15.77;14.20;;;25.00;99.90;;;;;;5093657;28;20431;-69
2021/06/22 01:14:17;;;;;;;15.17;13.67;;;25.00;99.90;;;;;;5093734;28;20396;-65
2021/06/22 01:16:43;;;;;;;13.97;12.67;;;24.90;99.90;;;;;;5093538;28;20241;-69
2021/06/22 01:19:09;;;;;;;15.23;13.73;;;24.90;99.90;;;;;;5093622;28;20412;-65
2021/06/22 01:21:36;;;;;;;13.60;12.20;;;24.90;99.90;;;;;;5093661;28;20584;-65
2021/06/22 01:24:06;;;;;;;14.37;12.97;;;24.80;99.90;;;;;;5093439;28;20566;-68
2021/06/22 01:26:34;;;;;;;16.50;14.03;;;24.70;99.90;;;;;;5093618;28;20474;-65
2021/06/22 01:29:00;;;;;;;15.70;14.17;;;24.60;99.90;;;;;;5094063;28;20881;-68
2021/06/22 01:31:25;;;;;;;15.43;13.93;;;24.70;99.90;;;;;;5093590;28;20423;-68
2021/06/22 01:33:51;;;;;;;14.20;12.80;;;24.60;99.90;;;;;;5094040;28;20175;-65
2021/06/22 01:36:19;;;;;;;15.20;13.60;;;24.40;99.90;;;;;;5092273;28;20656;-65
2021/06/22 01:38:45;;;;;;;16.33;14.73;;;24.50;99.90;;;;;;5093960;28;20167;-65
2021/06/22 01:41:10;;;;;;;14.60;13.20;;;24.50;99.90;;;;;;5092144;28;20447;-65
2021/06/22 01:43:36;;;;;;;16.80;15.30;;;24.50;99.90;;;;;;5092435;28;20183;-65
2021/06/22 01:46:03;;;;;;;17.03;14.47;;;24.50;99.90;;;;;;5093263;28;20676;-68
2021/06/22 01:48:29;;;;;;;16.60;14.90;;;24.40;99.90;;;;;;5093810;28;20176;-65
2021/06/22 01:50:54;;;;;;;15.50;13.97;;;24.40;99.90;;;;;;5092042;28;20789;-69
2021/06/22 01:53:20;;;;;;;20.67;14.40;;;24.40;99.90;;;;;;5093645;28;20419;-68
2021/06/22 01:55:49;;;;;;;16.40;14.23;;;24.30;99.90;;;;;;5093258;28;20200;-65
2021/06/22 01:58:16;;;;;;;15.37;13.87;;;24.30;99.90;;;;;;5092127;28;20180;-64
2021/06/22 02:00:44;;;;;;;16.43;14.90;;;24.40;99.90;;;;;;5093204;28;20794;-68
2021/06/22 02:03:14;;;;;;;16.53;14.93;;;24.50;99.90;;;;;;5093513;28;20416;-65
2021/06/22 02:05:40;;;;;;;17.17;15.33;;;24.40;99.90;;;;;;5093200;28;20477;-65
2021/06/22 02:08:05;;;;;;;17.10;14.80;;;24.60;99.90;;;;;;5093454;28;20426;-69
2021/06/22 02:10:31;;;;;;;16.00;14.40;;;24.70;99.90;;;;;;5093118;28;20203;-65
2021/06/22 02:12:57;;;;;;;19.07;14.67;;;24.70;99.90;;;;;;5095342;28;20521;-65
2021/06/22 02:15:23;;;;;;;16.77;15.07;;;24.50;99.90;;;;;;5096824;28;20206;-65
2021/06/22 02:17:49;;;;;;;18.10;16.23;;;24.60;99.90;;;;;;5097030;28;20195;-65
2021/06/22 02:20:15;;;;;;;17.97;16.07;;;24.60;99.90;;;;;;5095433;28;20204;-65
2021/06/22 02:22:41;;;;;;;16.90;15.20;;;24.60;99.90;;;;;;5096463;28;20553;-65
2021/06/22 02:25:09;;;;;;;20.20;16.70;;;24.60;99.90;;;;;;5096593;28;20514;-69
2021/06/22 02:27:36;;;;;;;21.33;16.30;;;24.50;99.90;;;;;;5096721;28;20225;-69
2021/06/22 02:30:11;;;;;;;18.57;16.67;;;24.40;99.90;;;;;;5096483;28;20743;-68
2021/06/22 02:32:37;;;;;;;19.13;16.27;;;24.50;99.90;;;;;;5096775;28;20768;-65
2021/06/22 02:35:06;;;;;;;21.40;17.53;;;24.50;99.90;;;;;;5096425;28;20821;-65
2021/06/22 02:37:32;;;;;;;20.43;16.63;;;24.50;99.90;;;;;;5095176;28;20415;-65
2021/06/22 02:39:57;;;;;;;23.47;17.30;;;24.20;99.90;;;;;;5096330;28;20446;-69
2021/06/22 02:42:23;;;;;;;20.30;18.00;;;24.20;99.90;;;;;;5096406;28;20467;-68
2021/06/22 02:44:49;;;;;;;23.40;19.20;;;24.10;99.90;;;;;;5096134;28;20174;-65
2021/06/22 02:47:15;;;;;;;24.30;19.27;;;24.10;99.90;;;;;;5094805;28;20565;-69
2021/06/22 02:49:40;;;;;;;29.57;21.20;;;24.10;99.90;;;;;;5096192;28;20403;-66
2021/06/22 02:52:06;;;;;;;28.27;20.73;;;24.10;99.90;;;;;;5094748;28;20208;-65
2021/06/22 02:54:37;;;;;;;25.33;20.27;;;24.10;99.90;;;;;;5096189;28;20182;-66
2021/06/22 02:57:06;;;;;;;29.63;21.27;;;24.10;99.90;;;;;;5095918;28;20782;-70
2021/06/22 02:59:32;;;;;;;27.83;21.13;;;24.00;99.90;;;;;;5095941;28;20407;-65
2021/06/22 03:01:57;;;;;;;26.50;20.97;;;24.00;99.90;;;;;;5095823;28;20440;-68
2021/06/22 03:04:23;;;;;;;21.37;19.10;;;23.90;99.90;;;;;;5095884;28;20170;-66
2021/06/22 03:06:49;;;;;;;23.63;20.00;;;23.80;99.90;;;;;;5094391;28;20212;-68
2021/06/22 03:09:14;;;;;;;22.17;19.77;;;23.70;99.90;;;;;;5095865;28;20287;-69
2021/06/22 03:11:40;;;;;;;23.43;18.93;;;23.60;99.90;;;;;;5094426;28;20567;-65
2021/06/22 03:14:05;;;;;;;21.83;19.43;;;23.60;99.90;;;;;;5094583;28;20637;-66
2021/06/22 03:16:31;;;;;;;22.23;19.40;;;23.60;99.90;;;;;;5094305;28;20246;-67
2021/06/22 03:18:56;;;;;;;19.77;17.70;;;23.60;99.90;;;;;;5094491;28;20192;-65
2021/06/22 03:21:22;;;;;;;21.33;18.70;;;23.60;99.90;;;;;;5095505;28;20217;-65
2021/06/22 03:23:49;;;;;;;22.10;18.87;;;23.70;99.90;;;;;;5094476;28;20316;-65
2021/06/22 03:26:15;;;;;;;22.63;19.63;;;23.70;99.90;;;;;;5095407;28;20274;-70
2021/06/22 03:28:41;;;;;;;20.60;18.50;;;23.50;99.90;;;;;;5095907;28;20440;-69
2021/06/22 03:31:06;;;;;;;22.27;18.90;;;23.40;99.90;;;;;;5095585;28;20422;-68
2021/06/22 03:33:32;;;;;;;34.53;18.27;;;23.40;99.90;;;;;;5095697;28;20624;-68
2021/06/22 03:35:58;;;;;;;19.93;17.90;;;23.40;99.90;;;;;;5095246;28;20643;-68
2021/06/22 03:38:23;;;;;;;25.50;19.53;;;23.40;99.90;;;;;;5095688;28;20203;-65
2021/06/22 03:40:49;;;;;;;26.13;19.53;;;23.50;99.90;;;;;;5095133;28;20201;-69
2021/06/22 03:43:19;;;;;;;28.20;19.20;;;23.50;99.90;;;;;;5093973;28;20254;-68
2021/06/22 03:45:45;;;;;;;21.93;18.83;;;23.50;99.90;;;;;;5095066;28;20581;-65
2021/06/22 03:48:10;;;;;;;21.50;19.40;;;23.40;99.90;;;;;;5095284;28;20459;-65
2021/06/22 03:50:37;;;;;;;26.07;20.97;;;23.40;99.90;;;;;;5094950;28;20617;-65
2021/06/22 03:53:02;;;;;;;27.63;21.27;;;23.30;99.90;;;;;;5095163;28;20203;-65
2021/06/22 03:55:31;;;;;;;24.47;20.07;;;23.30;99.90;;;;;;5094782;28;20468;-65
2021/06/22 03:57:59;;;;;;;23.10;19.73;;;23.40;99.90;;;;;;5093668;28;20683;-65
2021/06/22 04:00:25;;;;;;;26.00;19.03;;;23.50;99.90;;;;;;5094840;28;20502;-65
2021/06/22 04:02:51;;;;;;;22.67;18.40;;;23.50;99.90;;;;;;5093472;28;20425;-65
2021/06/22 04:05:17;;;;;;;24.73;19.00;;;23.40;99.90;;;;;;5094728;28;20421;-68
2021/06/22 04:07:43;;;;;;;18.60;16.60;;;23.30;99.90;;;;;;5094763;28;20217;-65
2021/06/22 04:10:09;;;;;;;20.83;18.10;;;23.20;99.90;;;;;;5093215;28;20442;-65
2021/06/22 04:12:35;;;;;;;21.27;17.17;;;23.30;99.90;;;;;;5093326;28;20491;-65
2021/06/22 04:15:01;;;;;;;20.13;17.70;;;23.40;99.90;;;;;;5094448;28;20441;-69
2021/06/22 04:17:26;;;;;;;17.90;15.93;;;23.60;99.90;;;;;;5094706;28;20180;-68
2021/06/22 04:19:52;;;;;;;19.30;16.23;;;23.70;99.90;;;;;;5093052;28;20181;-65
2021/06/22 04:22:17;;;;;;;23.27;17.70;;;23.90;99.90;;;;;;5092882;28;20188;-68
2021/06/22 04:24:43;;;;;;;18.73;16.90;;;23.90;99.90;;;;;;5093139;28;20188;-69
2021/06/22 04:27:09;;;;;;;20.73;16.53;;;23.70;99.90;;;;;;5093127;28;20299;-68
2021/06/22 04:29:34;;;;;;;19.60;16.70;;;23.60;99.90;;;;;;5094370;28;20173;-69
2021/06/22 04:32:00;;;;;;;24.63;17.57;;;23.70;99.90;;;;;;5094176;28;20237;-65
2021/06/22 04:34:26;;;;;;;20.23;17.60;;;23.50;99.90;;;;;;5094291;28;20177;-69
2021/06/22 04:36:52;;;;;;;21.53;17.20;;;23.50;99.90;;;;;;5104033;28;20202;-68
2021/06/22 04:39:18;;;;;;;26.47;18.40;;;23.60;99.90;;;;;;5113677;28;20416;-65
2021/06/22 04:41:44;;;;;;;24.20;19.37;;;23.60;99.90;;;;;;5113433;28;20937;-65
2021/06/22 04:44:11;;;;;;;26.87;20.30;;;23.70;99.90;;;;;;5111098;28;20432;-65
2021/06/22 04:46:36;;;;;;;26.93;20.73;;;23.60;99.90;;;;;;5113151;28;20858;-68
2021/06/22 04:49:03;;;;;;;22.57;19.00;;;23.70;99.90;;;;;;5114783;28;20419;-68
2021/06/22 04:51:28;;;;;;;22.33;17.77;;;23.60;99.90;;;;;;5112974;28;20197;-69
2021/06/22 04:53:54;;;;;;;21.50;17.30;;;23.70;99.90;;;;;;5114723;28;20432;-65
2021/06/22 04:56:24;;;;;;;23.50;19.00;;;23.90;99.90;;;;;;5112919;28;20430;-65
2021/06/22 04:58:51;;;;;;;19.40;17.40;;;24.20;99.90;;;;;;5114669;28;20164;-65
2021/06/22 05:01:17;;;;;;;18.53;16.53;;;24.20;99.90;;;;;;5114050;28;20436;-68
2021/06/22 05:03:42;;;;;;;23.60;16.33;;;24.10;99.90;;;;;;5114083;28;20409;-65
2021/06/22 05:06:08;;;;;;;19.13;17.10;;;24.00;99.90;;;;;;5112530;28;20285;-69
2021/06/22 05:08:33;;;;;;;19.63;15.60;;;24.20;99.90;;;;;;5112541;28;20245;-65
2021/06/22 05:10:59;;;;;;;17.53;14.60;;;24.60;99.90;;;;;;5114022;28;20622;-64
2021/06/22 05:13:25;;;;;;;19.90;15.90;;;24.60;99.90;;;;;;5111881;28;20176;-68
2021/06/22 05:15:51;;;;;;;15.47;13.53;;;24.70;99.90;;;;;;5111561;28;20794;-68
2021/06/22 05:18:16;;;;;;;16.93;14.40;;;24.70;99.90;;;;;;5111388;28;20208;-68
2021/06/22 05:20:42;;;;;;;22.70;15.60;;;24.70;99.90;;;;;;5112648;28;20579;-67
2021/06/22 05:23:08;;;;;;;18.33;15.07;;;24.70;99.90;;;;;;5112415;28;20241;-65
2021/06/22 05:25:33;;;;;;;22.07;15.20;;;24.70;99.90;;;;;;5112057;28;20558;-64
2021/06/22 05:27:59;;;;;;;18.40;14.10;;;24.90;99.90;;;;;;5110323;28;20217;-68
2021/06/22 05:30:25;;;;;;;21.83;14.70;;;25.10;99.90;;;;;;5110235;28;20761;-68
2021/06/22 05:32:50;;;;;;;23.50;15.57;;;25.10;99.90;;;;;;5112008;28;20212;-65
2021/06/22 05:35:16;;;;;;;17.70;12.87;;;25.30;99.90;;;;;;5111688;28;20199;-65
2021/06/22 05:37:42;;;;;;;22.60;14.63;;;25.30;99.90;;;;;;5110275;28;20193;-68
2021/06/22 05:40:08;;;;;;;23.23;14.87;;;25.20;99.90;;;;;;5109919;28;20203;-65
2021/06/22 05:42:34;;;;;;;23.93;13.67;;;25.30;99.90;;;;;;5112693;28;20198;-64
2021/06/22 05:45:00;;;;;;;20.77;12.60;;;25.30;99.90;;;;;;5113192;28;20415;-65
2021/06/22 05:47:25;;;;;;;24.13;13.50;;;25.40;99.90;;;;;;5110668;28;20226;-70
2021/06/22 05:49:51;;;;;;;23.77;13.67;;;25.50;99.90;;;;;;5115261;28;20182;-65
2021/06/22 05:52:17;;;;;;;24.00;13.00;;;25.60;99.90;;;;;;5117467;28;20180;-64
2021/06/22 05:54:43;;;;;;;18.00;13.03;;;25.90;99.90;;;;;;5116284;28;20266;-65
2021/06/22 05:57:08;;;;;;;24.70;13.60;;;26.00;99.90;;;;;;5114448;28;20203;-64
2021/06/22 05:59:35;;;;;;;18.90;13.40;;;26.10;99.90;;;;;;5114706;28;20982;-69
2021/06/22 06:02:01;;;;;;;15.40;11.53;;;26.20;99.90;;;;;;5111461;27;20257;-66
2021/06/22 06:04:28;;;;;;;23.00;12.50;;;26.40;99.90;;;;;;5112544;28;20419;-69
2021/06/22 06:06:54;;;;;;;23.47;12.30;;;26.60;99.90;;;;;;5114238;28;20219;-68
2021/06/22 06:09:20;;;;;;;15.40;11.17;;;26.60;99.90;;;;;;5113817;28;20430;-65
2021/06/22 06:11:46;;;;;;;12.03;10.70;;;26.50;99.90;;;;;;5113873;28;20518;-68
2021/06/22 06:14:12;;;;;;;22.00;12.10;;;26.60;99.90;;;;;;5115403;28;20502;-65
2021/06/22 06:16:37;;;;;;;22.90;11.77;;;26.80;99.90;;;;;;5113039;28;20286;-64
2021/06/22 06:19:03;;;;;;;17.63;11.60;;;26.70;99.90;;;;;;5113347;28;20590;-65
2021/06/22 06:21:29;;;;;;;20.73;11.50;;;27.00;99.90;;;;;;5113773;27;20215;-68
2021/06/22 06:23:57;;;;;;;16.67;10.40;;;27.10;99.90;;;;;;5113693;28;20283;-68
2021/06/22 06:26:23;;;;;;;15.47;10.13;;;27.20;99.90;;;;;;5115078;28;20637;-65
2021/06/22 06:28:52;;;;;;;14.73;10.77;;;27.30;99.90;;;;;;5115069;28;20572;-64
2021/06/22 06:31:18;;;;;;;20.10;10.40;;;27.40;99.90;;;;;;5115423;28;20479;-68
2021/06/22 06:33:44;;;;;;;26.83;12.20;;;27.30;99.90;;;;;;5114668;28;20424;-64
2021/06/22 06:36:10;;;;;;;21.57;9.40;;;27.80;99.90;;;;;;5114421;28;20987;-64
2021/06/22 06:38:35;;;;;;;16.87;8.60;;;27.80;99.90;;;;;;5109458;28;20639;-64
2021/06/22 06:41:01;;;;;;;18.57;8.50;;;27.90;99.90;;;;;;5120292;27;20207;-68
2021/06/22 06:43:27;;;;;;;17.43;9.50;;;27.80;99.90;;;;;;5109983;27;20183;-68
2021/06/22 06:45:52;;;;;;;22.30;9.37;;;28.00;99.90;;;;;;5113107;27;20221;-65
2021/06/22 06:48:18;;;;;;;16.10;8.40;;;28.60;99.90;;;;;;5113561;28;20237;-68
2021/06/22 06:50:44;;;;;;;20.60;7.70;;;28.50;99.90;;;;;;5110360;27;20678;-70
2021/06/22 06:53:10;;;;;;;21.30;8.73;;;28.70;99.90;;;;;;5108744;27;20424;-67
2021/06/22 06:55:40;;;;;;;10.70;7.73;;;28.80;99.90;;;;;;5114657;28;20283;-65
2021/06/22 06:58:06;;;;;;;26.80;9.67;;;28.80;99.90;;;;;;5105911;27;20226;-70
2021/06/22 07:00:36;;;;;;;17.93;7.37;;;28.80;99.90;;;;;;5103722;28;20451;-65
2021/06/22 07:03:03;;;;;;;24.23;7.97;;;29.10;99.90;;;;;;5112874;27;20521;-65
2021/06/22 07:05:29;;;;;;;17.43;6.50;;;29.50;99.90;;;;;;5109880;28;20466;-69
2021/06/22 07:07:55;;;;;;;25.87;6.77;;;29.50;99.90;;;;;;5114508;28;20506;-68
2021/06/22 07:10:21;;;;;;;19.63;6.13;;;29.70;99.90;;;;;;5111814;28;20445;-64
2021/06/22 07:12:47;;;;;;;20.70;5.60;;;29.80;99.90;;;;;;5112902;28;20430;-68
2021/06/22 07:15:14;;;;;;;12.40;5.63;;;29.80;99.90;;;;;;5111687;28;20563;-68
2021/06/22 07:17:40;;;;;;;16.40;6.33;;;29.80;99.90;;;;;;5108598;28;20973;-64
2021/06/22 07:20:07;;;;;;;24.43;6.50;;;29.80;99.90;;;;;;5105893;28;21704;-69
2021/06/22 07:22:32;;;;;;;27.10;6.10;;;29.90;99.90;;;;;;5107505;28;20219;-68
2021/06/22 07:24:59;;;;;;;24.57;8.33;;;30.00;99.90;;;;;;5103564;28;20520;-69
2021/06/22 07:27:25;;;;;;;17.83;6.50;;;30.10;99.90;;;;;;5106407;28;20986;-68
2021/06/22 07:29:52;;;;;;;24.73;6.97;;;30.20;99.90;;;;;;5109858;28;20443;-64
2021/06/22 07:32:18;;;;;;;20.40;6.50;;;30.30;99.90;;;;;;5105505;28;20529;-69
2021/06/22 07:34:43;;;;;;;26.47;6.43;;;30.10;99.90;;;;;;5110049;28;20844;-66
2021/06/22 07:37:09;;;;;;;19.00;6.27;;;30.40;99.90;;;;;;5111975;28;20304;-70
2021/06/22 07:39:34;;;;;;;23.27;6.07;;;30.50;99.90;;;;;;5113282;28;20182;-67
2021/06/22 07:42:00;;;;;;;30.53;6.50;;;30.50;99.90;;;;;;5107940;28;22839;-68
2021/06/22 07:44:26;;;;;;;22.83;6.60;;;30.40;99.90;;;;;;5109356;28;20200;-66
2021/06/22 07:46:51;;;;;;;32.13;7.83;;;30.40;99.90;;;;;;5106845;27;20251;-64
2021/06/22 07:49:17;;;;;;;19.37;6.47;;;30.40;99.90;;;;;;5113912;28;20186;-66
2021/06/22 07:51:42;;;;;;;17.73;6.23;;;30.60;99.90;;;;;;5105181;28;20686;-65
2021/06/22 07:54:08;;;;;;;16.00;6.97;;;30.40;99.90;;;;;;5110531;28;20190;-69
2021/06/22 07:56:34;;;;;;;25.93;6.13;;;30.40;99.90;;;;;;5103974;28;20290;-68
2021/06/22 07:58:59;;;;;;;15.17;5.70;;;30.60;99.90;;;;;;5105935;28;20192;-68
2021/06/22 08:01:26;;;;;;;19.57;6.27;;;30.60;99.90;;;;;;5106715;28;20266;-64
2021/06/22 08:03:52;;;;;;;17.20;6.43;;;30.80;99.90;;;;;;5107373;28;20544;-68
2021/06/22 08:06:17;;;;;;;30.53;7.27;;;30.90;99.90;;;;;;5103680;28;20592;-65
2021/06/22 08:08:43;;;;;;;18.90;7.37;;;31.10;99.90;;;;;;5112881;28;20471;-69
2021/06/22 08:11:09;;;;;;;22.10;6.80;;;31.20;99.80;;;;;;5107736;28;20218;-65
2021/06/22 08:13:34;;;;;;;20.70;5.83;;;31.10;99.90;;;;;;5111259;28;20193;-64
2021/06/22 08:16:01;;;;;;;18.53;6.97;;;31.10;99.90;;;;;;5108121;28;20195;-69
2021/06/22 08:18:27;;;;;;;20.63;7.20;;;31.10;99.90;;;;;;5109092;28;20389;-65
2021/06/22 08:20:53;;;;;;;22.60;6.90;;;31.20;99.90;;;;;;5106406;28;20446;-65
2021/06/22 08:23:20;;;;;;;21.93;6.43;;;31.30;99.80;;;;;;5110112;28;20938;-65
2021/06/22 08:25:46;;;;;;;27.60;6.50;;;31.10;99.30;;;;;;5108915;28;20229;-69
2021/06/22 08:28:12;;;;;;;27.73;8.83;;;31.30;99.40;;;;;;5110599;28;20440;-65
2021/06/22 08:30:39;;;;;;;18.13;6.63;;;31.50;99.50;;;;;;5110448;28;20522;-65
2021/06/22 08:33:06;;;;;;;23.17;6.30;;;31.40;99.30;;;;;;5104709;28;20436;-69
2021/06/22 08:35:33;;;;;;;18.97;5.63;;;31.80;98.90;;;;;;5100610;28;20543;-65
2021/06/22 08:37:59;;;;;;;15.33;6.23;;;32.10;98.30;;;;;;5104679;28;20475;-66
2021/06/22 08:40:25;;;;;;;16.90;5.83;;;32.60;98.20;;;;;;5107177;28;20492;-69
2021/06/22 08:42:51;;;;;;;17.03;5.17;;;32.50;97.80;;;;;;5103837;28;21778;-66
2021/06/22 08:45:18;;;;;;;26.70;7.17;;;32.30;97.70;;;;;;5101940;28;20287;-66
2021/06/22 08:47:45;;;;;;;20.07;6.70;;;31.80;98.00;;;;;;5101858;27;20219;-67
2021/06/22 08:50:13;;;;;;;23.57;7.33;;;31.70;98.50;;;;;;5109351;28;21165;-66
2021/06/22 08:52:39;;;;;;;20.47;6.23;;;32.00;98.80;;;;;;5100011;28;20432;-66
2021/06/22 08:55:07;;;;;;;16.20;5.20;;;32.00;98.10;;;;;;5104052;28;20431;-69
2021/06/22 08:57:35;;;;;;;16.83;5.67;;;32.20;97.90;;;;;;5104353;28;20432;-66
2021/06/22 09:00:01;;;;;;;13.23;5.70;;;32.20;97.80;;;;;;5106350;28;20416;-66
2021/06/22 09:02:29;;;;;;;19.63;6.50;;;32.30;97.50;;;;;;5103329;28;20792;-67
2021/06/22 09:04:58;;;;;;;24.70;6.90;;;32.10;97.80;;;;;;5102657;28;20171;-69
2021/06/22 09:07:56;;;;;;;21.47;6.63;;;32.60;98.00;;;;;;5105576;28;20483;-70
2021/06/22 09:10:29;;;;;;;26.93;6.77;;;32.60;97.70;;;;;;5102794;28;20544;-70
2021/06/22 09:12:55;;;;;;;19.03;6.63;;;32.40;97.00;;;;;;5107652;28;20436;-66
2021/06/22 09:15:24;;;;;;;32.00;6.73;;;32.30;97.40;;;;;;5103122;28;20467;-69
2021/06/22 09:17:50;;;;;;;20.77;7.23;;;32.50;97.00;;;;;;5107026;28;20436;-66
2021/06/22 09:20:33;;;;;;;24.27;6.10;;;32.40;97.00;;;;;;5105538;28;20464;-70
2021/06/22 09:23:04;;;;;;;22.63;6.70;;;32.70;97.20;;;;;;5103278;28;20515;-69
2021/06/22 09:25:34;;;;;;;16.53;5.70;;;32.90;96.70;;;;;;5111507;28;20441;-69
2021/06/22 09:27:59;;;;;;;18.33;5.90;;;32.80;96.00;;;;;;5100120;28;21089;-70
2021/06/22 09:30:48;;;;;;;20.97;6.60;;;32.90;95.60;;;;;;5107852;28;20515;-68
2021/06/22 09:33:22;;;;;;;15.73;6.27;;;33.00;95.90;;;;;;5110415;28;20188;-66
2021/06/22 09:35:55;;;;;;;13.87;5.87;;;33.30;95.70;;;;;;5108526;28;20463;-70
2021/06/22 09:38:21;;;;;;;20.40;7.37;;;33.50;95.50;;;;;;5107609;28;20497;-69
2021/06/22 09:40:46;;;;;;;21.20;5.80;;;33.00;95.20;;;;;;5105548;28;20445;-67
2021/06/22 09:43:12;;;;;;;33.60;7.00;;;33.10;95.40;;;;;;5107726;28;20189;-66
2021/06/22 09:45:40;;;;;;;22.23;7.30;;;33.50;95.10;;;;;;5109068;28;20195;-67
2021/06/22 09:48:06;;;;;;;22.80;7.87;;;33.50;94.60;;;;;;5112772;28;20626;-70
2021/06/22 09:50:48;;;;;;;30.70;6.50;;;33.60;94.60;;;;;;5112834;28;20432;-66
2021/06/22 09:53:28;;;;;;;20.00;6.60;;;33.50;94.50;;;;;;5108248;27;20791;-67
2021/06/22 09:55:54;;;;;;;20.23;6.53;;;33.80;94.60;;;;;;5111876;28;20845;-65
2021/06/22 09:58:44;;;;;;;18.37;6.23;;;33.70;94.20;;;;;;5109180;28;20488;-68
2021/06/22 10:01:31;;;;;;;15.80;5.70;;;34.00;94.20;;;;;;5088877;28;20460;-67
2021/06/22 10:04:18;;;;;;;16.13;5.90;;;33.70;94.30;;;;;;5105343;28;20777;-67
2021/06/22 10:06:49;;;;;;;27.40;6.60;;;34.30;94.00;;;;;;5114483;27;20502;-65
2021/06/22 10:09:19;;;;;;;23.00;6.67;;;34.40;93.00;;;;;;5106470;28;20783;-69
2021/06/22 10:11:45;;;;;;;22.33;6.90;;;34.10;93.10;;;;;;5093570;28;20858;-65
2021/06/22 10:14:26;;;;;;;16.60;6.13;;;33.90;93.00;;;;;;5106813;28;20432;-66
2021/06/22 10:16:52;;;;;;;20.03;6.90;;;34.10;92.70;;;;;;5102451;27;20207;-68
2021/06/22 10:19:22;;;;;;;21.00;5.70;;;34.10;92.90;;;;;;5113656;27;20412;-69
2021/06/22 10:21:48;;;;;;;17.83;7.07;;;34.20;92.60;;;;;;5104748;27;20496;-67
2021/06/22 10:24:14;;;;;;;17.77;6.27;;;34.30;92.00;;;;;;5112724;28;20468;-68
2021/06/22 10:26:40;;;;;;;20.03;6.73;;;34.30;92.10;;;;;;5108614;28;20468;-64
2021/06/22 10:29:06;;;;;;;22.73;5.80;;;34.30;92.10;;;;;;5109162;28;20550;-69
2021/06/22 10:31:32;;;;;;;20.17;6.17;;;34.50;91.20;;;;;;5111406;28;20538;-66
2021/06/22 10:33:57;;;;;;;14.53;6.50;;;34.50;91.40;;;;;;5113117;27;20204;-68
2021/06/22 10:36:25;;;;;;;18.90;5.47;;;34.50;91.70;;;;;;5109114;28;20260;-65
2021/06/22 10:38:54;;;;;;;21.53;5.67;;;34.70;91.20;;;;;;5110186;28;20208;-68
2021/06/22 10:41:21;;;;;;;13.00;5.93;;;34.50;91.40;;;;;;5110101;27;21039;-65
2021/06/22 10:43:47;;;;;;;19.97;6.00;;;34.20;92.00;;;;;;5111697;28;20428;-68
2021/06/22 10:46:19;;;;;;;24.50;5.90;;;34.30;91.80;;;;;;5107929;28;20467;-66
2021/06/22 10:48:49;;;;;;;17.63;6.10;;;34.40;91.90;;;;;;5107238;28;20627;-69
2021/06/22 10:51:34;;;;;;;14.37;5.33;;;34.10;91.40;;;;;;5111131;28;20444;-66
2021/06/22 10:53:59;;;;;;;25.90;5.90;;;33.90;91.50;;;;;;5106388;28;20452;-68
2021/06/22 10:56:27;;;;;;;23.53;6.93;;;34.40;91.70;;;;;;5109574;28;20497;-66
2021/06/22 10:59:11;;;;;;;23.07;5.57;;;34.30;91.40;;;;;;5103462;28;20609;-70
2021/06/22 11:01:52;;;;;;;17.73;6.23;;;34.60;91.20;;;;;;5110186;28;21057;-70
2021/06/22 11:04:18;;;;;;;22.37;6.40;;;34.30;91.40;;;;;;5111758;27;20447;-68
2021/06/22 11:07:06;;;;;;;11.33;4.93;;;34.30;91.00;;;;;;5108426;28;20559;-70
2021/06/22 11:09:32;;;;;;;12.00;5.40;;;34.50;90.40;;;;;;5112476;28;20442;-66
2021/06/22 11:12:26;;;;;;;23.43;7.10;;;34.90;90.50;;;;;;5110395;28;20961;-67
2021/06/22 11:15:08;;;;;;;24.00;6.37;;;34.50;90.00;;;;;;5098244;28;20423;-66
2021/06/22 11:17:43;;;;;;;14.87;6.50;;;34.60;90.40;;;;;;5104301;28;20454;-66
2021/06/22 11:20:09;;;;;;;21.30;5.83;;;34.70;89.70;;;;;;5110278;28;20455;-69
2021/06/22 11:23:01;;;;;;;25.20;6.90;;;34.60;89.70;;;;;;5111204;27;20460;-66
2021/06/22 11:26:02;;;;;;;15.40;5.97;;;34.80;90.30;;;;;;5108027;28;20540;-67
2021/06/22 11:28:48;;;;;;;17.53;5.33;;;34.70;88.60;;;;;;5103124;28;20447;-69
2021/06/22 11:31:35;;;;;;;29.33;7.03;;;35.10;88.70;;;;;;5110987;28;20459;-66
2021/06/22 11:34:12;;;;;;;21.53;5.37;;;35.00;89.10;;;;;;5108421;27;20419;-66
2021/06/22 11:36:40;;;;;;;18.00;6.13;;;34.70;88.30;;;;;;5111284;28;20443;-66
2021/06/22 11:39:27;;;;;;;21.07;5.83;;;34.90;89.10;;;;;;5110600;28;20427;-68
2021/06/22 11:42:08;;;;;;;12.83;5.50;;;34.70;89.40;;;;;;5110142;28;20443;-67
2021/06/22 11:44:48;;;;;;;21.33;6.07;;;35.10;89.90;;;;;;5107115;28;20423;-69
2021/06/22 11:47:26;;;;;;;19.10;5.70;;;35.10;90.10;;;;;;5094867;28;20548;-66
2021/06/22 11:49:53;;;;;;;17.97;5.67;;;35.10;90.10;;;;;;5106553;27;20510;-69
2021/06/22 11:52:22;;;;;;;17.17;5.90;;;35.10;88.90;;;;;;5106394;28;20825;-69
2021/06/22 11:54:47;;;;;;;19.07;6.93;;;35.20;88.50;;;;;;5105163;28;20469;-66
2021/06/22 11:57:22;;;;;;;15.87;6.07;;;35.40;88.90;;;;;;5105380;28;20452;-69
2021/06/22 11:59:48;;;;;;;16.90;5.87;;;35.40;89.00;;;;;;5107848;28;20539;-69
2021/06/22 12:02:16;;;;;;;15.60;5.20;;;35.50;89.60;;;;;;5110844;28;20493;-69
2021/06/22 12:04:42;;;;;;;16.37;6.67;;;35.60;89.40;;;;;;5106600;28;20427;-69
2021/06/22 12:07:12;;;;;;;23.60;6.63;;;35.60;88.70;;;;;;5107199;28;20484;-70
2021/06/22 12:09:45;;;;;;;26.10;6.33;;;35.50;88.50;;;;;;5108508;28;20504;-67
2021/06/22 12:12:12;;;;;;;17.57;6.23;;;35.30;88.30;;;;;;5105383;27;20440;-68
2021/06/22 12:14:54;;;;;;;15.50;6.07;;;35.00;87.40;;;;;;5108168;28;20548;-69
2021/06/22 12:17:20;;;;;;;16.57;5.90;;;35.10;88.70;;;;;;5108908;28;20432;-67
2021/06/22 12:19:47;;;;;;;15.10;6.60;;;35.10;89.10;;;;;;5109786;28;20465;-66
2021/06/22 12:22:14;;;;;;;22.20;6.50;;;35.30;89.90;;;;;;5102901;28;20584;-67
2021/06/22 12:24:42;;;;;;;28.77;6.97;;;35.40;90.20;;;;;;5106747;27;20420;-66
2021/06/22 12:27:09;;;;;;;14.20;5.80;;;35.50;88.30;;;;;;5105380;28;20536;-68
2021/06/22 12:29:36;;;;;;;22.20;6.63;;;35.40;88.30;;;;;;5109493;28;20408;-66
2021/06/22 12:32:07;;;;;;;21.90;6.77;;;35.10;87.80;;;;;;5106449;28;20468;-70
2021/06/22 12:34:36;;;;;;;28.80;7.53;;;35.40;88.50;;;;;;5107438;28;20420;-69